Time;durP1;ratioP1;P1;durP2;ratioP2;P2;SDS_P1;SDS_P2;PMS_P1;PMS_P2;Temp;Humidity;BMP_temperature;BMP_pressure;BME280_temperature;BME280_humidity;BME280_pressure;Samples;Min_cycle;Max_cycle;Signal;HPM_P1;HPM_P2
2022/03/27 00:02:18;;;;;;;18.50;9.00;;;;;;;6.76;100.00;98594.73;1704939;84;21075;-69
2022/03/27 00:04:45;;;;;;;15.70;8.67;;;;;;;6.74;100.00;98599.97;1705059;84;21071;-69
2022/03/27 00:07:14;;;;;;;21.10;9.80;;;;;;;6.69;100.00;98604.53;1704820;84;21197;-69
2022/03/27 00:09:42;;;;;;;19.30;8.77;;;;;;;6.68;100.00;98588.10;1705122;84;21131;-69
2022/03/27 00:12:10;;;;;;;18.93;9.73;;;;;;;6.65;100.00;98587.94;1695652;84;21084;-70
2022/03/27 00:14:38;;;;;;;18.43;9.70;;;;;;;6.61;100.00;98585.30;1667810;86;21581;-70
2022/03/27 00:17:07;;;;;;;17.60;8.67;;;;;;;6.56;100.00;98576.13;1667893;86;21517;-70
2022/03/27 00:19:35;;;;;;;16.10;9.10;;;;;;;6.52;100.00;98581.54;1667665;86;21087;-70
2022/03/27 00:22:05;;;;;;;16.37;9.30;;;;;;;6.49;100.00;98589.43;1667802;86;21071;-69
2022/03/27 00:24:32;;;;;;;16.90;9.10;;;;;;;6.47;100.00;98578.04;1667967;86;21564;-71
2022/03/27 00:27:01;;;;;;;16.87;8.87;;;;;;;6.44;100.00;98584.59;1667625;86;21068;-70
2022/03/27 00:29:28;;;;;;;17.17;8.87;;;;;;;6.41;100.00;98589.48;1667556;86;21075;-70
2022/03/27 00:31:55;;;;;;;18.17;9.40;;;;;;;6.37;100.00;98588.19;1667919;86;21079;-69
2022/03/27 00:34:23;;;;;;;18.20;9.20;;;;;;;6.34;100.00;98588.53;1667737;86;21064;-69
2022/03/27 00:36:52;;;;;;;17.00;8.70;;;;;;;6.31;100.00;98593.77;1667881;86;21069;-69
2022/03/27 00:39:19;;;;;;;18.03;9.67;;;;;;;6.29;100.00;98581.55;1667697;86;21064;-70
2022/03/27 00:41:47;;;;;;;17.30;9.03;;;;;;;6.25;100.00;98578.36;1645537;86;21075;-69
2022/03/27 00:44:14;;;;;;;11.90;6.33;;;;;;;6.21;100.00;98624.86;1667879;86;21008;-69
2022/03/27 00:46:42;;;;;;;4.27;2.53;;;;;;;6.20;100.00;98674.20;1667852;86;21710;-69
2022/03/27 00:49:09;;;;;;;7.87;2.40;;;;;;;5.79;100.00;98711.92;1668118;86;21584;-69
2022/03/27 00:51:37;;;;;;;7.90;1.90;;;;;;;5.23;100.00;98714.55;1729411;79;20980;-69
2022/03/27 00:54:05;;;;;;;3.80;1.73;;;;;;;4.63;100.00;98737.13;1813361;77;21025;-69
2022/03/27 00:56:33;;;;;;;1.93;1.40;;;;;;;4.18;100.00;98789.21;1823416;79;21054;-69
2022/03/27 00:59:01;;;;;;;4.47;1.80;;;;;;;3.78;100.00;98806.20;1823545;79;21077;-70
2022/03/27 01:01:36;;;;;;;5.70;1.50;;;;;;;3.53;100.00;98821.75;1823621;79;21053;-69
2022/03/27 01:04:05;;;;;;;1.97;1.33;;;;;;;3.30;100.00;98844.12;1823351;79;21038;-69
2022/03/27 01:06:38;;;;;;;2.87;1.50;;;;;;;3.12;100.00;98862.82;1823536;79;21023;-69
2022/03/27 01:11:54;;;;;;;2.93;1.20;;;;;;;2.89;100.00;98899.30;1819910;78;21015;-70
2022/03/27 01:14:29;;;;;;;3.60;2.37;;;;;;;2.79;100.00;98896.67;1798812;80;21031;-69
2022/03/27 01:17:05;;;;;;;2.50;1.20;;;;;;;2.68;100.00;98901.39;1798773;80;21046;-70
2022/03/27 01:19:33;;;;;;;2.40;1.10;;;;;;;2.54;100.00;98918.23;1798529;80;21003;-69
2022/03/27 01:22:01;;;;;;;2.43;1.13;;;;;;;2.27;100.00;98929.22;1798406;80;21034;-70
2022/03/27 01:24:29;;;;;;;3.33;1.50;;;;;;;1.96;100.00;98929.91;1798698;80;21507;-70
2022/03/27 01:26:57;;;;;;;2.27;0.90;;;;;;;1.66;100.00;98924.28;1798448;80;22259;-70
2022/03/27 01:29:24;;;;;;;1.70;0.80;;;;;;;1.46;100.00;98914.13;1798461;80;21031;-70
2022/03/27 01:31:53;;;;;;;1.87;1.37;;;;;;;1.28;100.00;98912.16;1798738;80;21027;-70
2022/03/27 01:34:20;;;;;;;1.07;1.07;;;;;;;1.21;100.00;98912.86;1765968;80;21097;-70
2022/03/27 01:36:48;;;;;;;2.40;1.40;;;;;;;1.13;100.00;98927.72;1798873;80;21499;-69
2022/03/27 01:39:16;;;;;;;3.17;1.77;;;;;;;1.06;100.00;98922.59;1798293;80;21059;-70
2022/03/27 01:41:45;;;;;;;4.77;2.03;;;;;;;1.04;100.00;98904.55;1798671;80;21097;-71
2022/03/27 01:44:15;;;;;;;11.40;4.83;;;;;;;1.04;100.00;98890.41;1798436;80;21042;-70
2022/03/27 01:46:43;;;;;;;18.73;6.27;;;;;;;1.05;100.00;98902.26;1798885;80;21041;-70
2022/03/27 01:49:13;;;;;;;20.03;7.93;;;;;;;1.03;100.00;98895.41;1798323;80;21077;-70
2022/03/27 01:51:41;;;;;;;25.43;12.33;;;;;;;1.01;100.00;98900.86;1798783;80;21047;-69
2022/03/27 01:54:08;;;;;;;26.77;13.03;;;;;;;1.03;100.00;98906.05;1813397;79;21460;-69
2022/03/27 01:56:38;;;;;;;21.80;9.50;;;;;;;0.99;100.00;98905.45;1823498;79;21093;-69
2022/03/27 01:59:07;;;;;;;9.60;4.43;;;;;;;1.00;100.00;98896.50;1823590;79;21018;-69
2022/03/27 02:01:37;;;;;;;5.83;3.23;;;;;;;1.00;100.00;98892.52;1823540;79;21067;-69
2022/03/27 02:04:05;;;;;;;5.03;2.50;;;;;;;1.00;100.00;98889.02;1823401;79;21026;-70
2022/03/27 02:06:33;;;;;;;2.57;1.57;;;;;;;1.01;100.00;98886.22;1823773;79;21498;-70
2022/03/27 02:09:02;;;;;;;2.37;1.87;;;;;;;1.01;100.00;98890.21;1823364;79;21527;-70
2022/03/27 02:11:29;;;;;;;5.10;2.00;;;;;;;0.99;100.00;98898.80;1823733;79;21018;-69
2022/03/27 02:13:57;;;;;;;3.77;2.07;;;;;;;0.97;100.00;98907.91;1798025;79;21004;-70
2022/03/27 02:16:24;;;;;;;5.30;2.10;;;;;;;0.97;100.00;98908.75;1798329;80;21524;-70
2022/03/27 02:18:51;;;;;;;6.10;2.00;;;;;;;0.97;100.00;98900.77;1798020;80;21067;-70
2022/03/27 02:21:18;;;;;;;3.33;1.70;;;;;;;0.95;100.00;98886.76;1797807;78;21028;-70
2022/03/27 02:23:46;;;;;;;3.23;1.90;;;;;;;0.97;100.00;98888.78;1798205;80;21094;-69
2022/03/27 02:26:13;;;;;;;4.47;1.70;;;;;;;1.02;100.00;98883.89;1798193;80;21547;-70
2022/03/27 02:28:40;;;;;;;2.97;1.90;;;;;;;1.05;100.00;98879.63;1797735;80;21070;-70
2022/03/27 02:31:09;;;;;;;4.10;2.00;;;;;;;1.08;100.00;98876.70;1798170;80;21032;-70
2022/03/27 02:33:37;;;;;;;4.87;1.90;;;;;;;1.11;100.00;98872.91;1798232;80;21036;-70
2022/03/27 02:36:08;;;;;;;7.50;2.23;;;;;;;1.14;100.00;98868.14;1797707;80;21063;-70
2022/03/27 02:38:35;;;;;;;5.73;2.30;;;;;;;1.16;100.00;98869.33;1798124;80;21046;-70
2022/03/27 02:41:06;;;;;;;8.40;2.10;;;;;;;1.16;100.00;98870.66;1798935;79;21047;-70
2022/03/27 02:43:34;;;;;;;4.30;2.33;;;;;;;1.18;100.00;98875.86;1799266;78;21024;-70
2022/03/27 02:46:01;;;;;;;8.20;3.10;;;;;;;1.19;100.00;98874.39;1798449;80;21430;-69
2022/03/27 02:48:28;;;;;;;8.33;3.00;;;;;;;1.22;100.00;98866.59;1765048;80;21091;-69
2022/03/27 02:50:55;;;;;;;9.47;3.20;;;;;;;1.24;100.00;98865.95;1797921;80;21582;-70
2022/03/27 02:53:23;;;;;;;8.83;3.77;;;;;;;1.28;100.00;98862.05;1806715;78;21479;-69
2022/03/27 02:55:51;;;;;;;15.00;5.80;;;;;;;1.34;100.00;98850.83;1828718;78;21554;-69
2022/03/27 02:58:19;;;;;;;17.03;6.77;;;;;;;1.40;100.00;98844.95;1797196;78;21447;-70
2022/03/27 03:00:46;;;;;;;22.10;10.67;;;;;;;1.44;100.00;98840.17;1828922;78;21006;-69
2022/03/27 03:03:14;;;;;;;24.50;11.83;;;;;;;1.47;100.00;98844.73;1828875;78;20985;-69
2022/03/27 03:05:44;;;;;;;24.60;10.03;;;;;;;1.50;100.00;98836.42;1828599;78;21041;-70
2022/03/27 03:08:12;;;;;;;24.37;10.50;;;;;;;1.54;100.00;98842.81;1828942;78;21483;-70
2022/03/27 03:10:41;;;;;;;25.70;11.87;;;;;;;1.60;100.00;98835.59;1829102;78;21499;-69
2022/03/27 03:13:10;;;;;;;26.90;11.90;;;;;;;1.64;100.00;98842.30;1828524;78;21061;-70
2022/03/27 03:15:42;;;;;;;23.13;8.80;;;;;;;1.68;100.00;98843.69;1828925;78;21498;-70
2022/03/27 03:18:10;;;;;;;20.30;7.90;;;;;;;1.71;100.00;98851.41;1828933;78;21025;-70
2022/03/27 03:20:39;;;;;;;16.50;7.20;;;;;;;1.76;100.00;98854.98;1828714;78;21009;-70
2022/03/27 03:23:08;;;;;;;19.37;7.83;;;;;;;1.78;100.00;98863.17;1828775;78;21026;-70
2022/03/27 03:25:36;;;;;;;19.57;7.93;;;;;;;1.81;100.00;98872.22;1828608;78;21080;-70
2022/03/27 03:28:04;;;;;;;15.87;6.30;;;;;;;1.82;100.00;98879.22;1828670;78;21022;-70
2022/03/27 03:30:32;;;;;;;13.03;5.90;;;;;;;1.84;100.00;98881.74;1828771;78;21049;-71
2022/03/27 03:32:59;;;;;;;15.60;5.93;;;;;;;1.84;100.00;98895.94;1828870;78;21025;-70
2022/03/27 03:35:26;;;;;;;14.07;5.97;;;;;;;1.85;100.00;98916.76;1828516;78;21092;-70
2022/03/27 03:37:54;;;;;;;10.67;4.90;;;;;;;1.84;100.00;98916.39;1828948;78;21025;-70
2022/03/27 03:40:21;;;;;;;10.20;3.93;;;;;;;1.84;100.00;98933.72;1828511;78;21084;-70
2022/03/27 03:42:50;;;;;;;7.93;3.37;;;;;;;1.84;100.00;98939.05;1828825;78;21034;-70
2022/03/27 03:45:18;;;;;;;7.53;3.23;;;;;;;1.82;100.00;98949.02;1828869;78;21510;-70
2022/03/27 03:47:46;;;;;;;4.53;2.50;;;;;;;1.81;100.00;98952.19;1828462;78;21060;-70
2022/03/27 03:50:13;;;;;;;4.83;2.10;;;;;;;1.81;100.00;98969.52;1828691;78;21018;-70
2022/03/27 03:52:42;;;;;;;5.60;2.37;;;;;;;1.78;100.00;98981.78;1828980;78;21065;-70
2022/03/27 03:55:09;;;;;;;5.57;1.90;;;;;;;1.76;100.00;98982.92;1761703;81;21059;-70
2022/03/27 03:57:37;;;;;;;2.77;1.90;;;;;;;1.71;100.00;98989.99;1758894;81;21074;-70
2022/03/27 04:00:07;;;;;;;6.50;2.07;;;;;;;1.67;100.00;98992.09;1759024;82;21065;-70
2022/03/27 04:02:38;;;;;;;5.17;2.12;;;;;;;1.63;100.00;99008.48;1755998;81;21531;-69
2022/03/27 04:05:08;;;;;;;2.77;1.77;;;;;;;1.59;100.00;99017.75;1758847;81;21078;-70
2022/03/27 04:07:35;;;;;;;3.70;1.53;;;;;;;1.57;100.00;99021.88;1759247;81;21019;-69
2022/03/27 04:10:05;;;;;;;5.57;1.90;;;;;;;1.56;100.00;99034.01;1759311;81;21012;-70
2022/03/27 04:12:34;;;;;;;3.93;2.10;;;;;;;1.51;100.00;99039.27;1758888;81;21026;-70
2022/03/27 04:15:01;;;;;;;7.07;1.87;;;;;;;1.48;100.00;99043.53;1759047;81;21602;-70
2022/03/27 04:17:30;;;;;;;4.80;2.10;;;;;;;1.47;100.00;99051.20;1758948;81;21174;-70
2022/03/27 04:19:58;;;;;;;7.40;1.80;;;;;;;1.46;100.00;99053.49;1759139;80;21070;-68
2022/03/27 04:22:25;;;;;;;3.27;1.73;;;;;;;1.46;100.00;99056.66;1758864;81;21048;-68
2022/03/27 04:24:52;;;;;;;6.27;1.67;;;;;;;1.47;100.00;99071.17;1758953;81;21050;-69
2022/03/27 04:27:20;;;;;;;6.67;1.70;;;;;;;1.46;100.00;99076.14;1759097;81;21488;-70
2022/03/27 04:29:47;;;;;;;5.40;1.60;;;;;;;1.48;100.00;99078.17;1760589;80;21000;-70
2022/03/27 04:32:15;;;;;;;4.17;1.67;;;;;;;1.51;100.00;99083.23;1760691;79;21038;-67
2022/03/27 04:34:43;;;;;;;3.43;1.50;;;;;;;1.52;100.00;99092.06;1758782;81;21114;-70
2022/03/27 04:37:11;;;;;;;2.80;1.10;;;;;;;1.54;100.00;99101.25;1759110;81;21523;-70
2022/03/27 04:39:38;;;;;;;2.33;1.50;;;;;;;1.54;100.00;99110.58;1759397;81;21015;-69
2022/03/27 04:42:07;;;;;;;4.77;1.80;;;;;;;1.57;100.00;99116.48;1758906;81;21047;-69
2022/03/27 04:44:36;;;;;;;3.97;1.73;;;;;;;1.61;100.00;99122.38;1759271;81;21019;-69
2022/03/27 04:47:06;;;;;;;5.90;1.80;;;;;;;1.63;100.00;99127.94;1759198;81;20975;-69
2022/03/27 04:49:33;;;;;;;2.63;1.40;;;;;;;1.66;100.00;99148.13;1759230;81;21055;-69
2022/03/27 04:52:01;;;;;;;3.07;1.70;;;;;;;1.68;100.00;99143.50;1758970;81;21145;-69
2022/03/27 04:54:31;;;;;;;4.57;1.90;;;;;;;1.71;100.00;99159.23;1801799;79;21028;-68
2022/03/27 04:56:59;;;;;;;3.60;1.70;;;;;;;1.74;100.00;99170.13;1817836;79;21483;-70
2022/03/27 04:59:26;;;;;;;3.47;1.83;;;;;;;1.76;100.00;99182.82;1817380;79;21042;-70
2022/03/27 05:01:54;;;;;;;2.33;1.40;;;;;;;1.79;100.00;99195.39;1817651;79;21038;-70
2022/03/27 05:04:23;;;;;;;3.33;1.63;;;;;;;1.83;100.00;99225.28;1817555;79;21030;-70
2022/03/27 05:06:52;;;;;;;2.07;1.70;;;;;;;1.86;100.00;99231.66;1817345;79;21500;-69
2022/03/27 05:09:19;;;;;;;4.73;1.67;;;;;;;1.90;100.00;99240.59;1795019;79;21022;-69
2022/03/27 05:11:48;;;;;;;6.50;2.30;;;;;;;1.95;100.00;99246.86;1818129;79;21058;-69
2022/03/27 05:14:17;;;;;;;2.43;1.57;;;;;;;2.01;100.00;99252.97;1822835;79;21049;-70
2022/03/27 05:16:45;;;;;;;7.37;1.97;;;;;;;2.09;100.00;99258.98;1822880;79;21015;-69
2022/03/27 05:19:13;;;;;;;2.87;1.70;;;;;;;2.16;100.00;99273.45;1800391;79;21073;-68
2022/03/27 05:21:41;;;;;;;4.20;1.87;;;;;;;2.25;100.00;99281.14;1823166;79;21022;-68
2022/03/27 05:24:10;;;;;;;3.73;1.40;;;;;;;2.33;100.00;99281.78;1823075;79;20991;-69
2022/03/27 05:26:39;;;;;;;4.73;1.90;;;;;;;2.41;100.00;99295.28;1822754;79;21014;-69
2022/03/27 05:29:10;;;;;;;4.17;1.80;;;;;;;2.47;100.00;99296.89;1823108;79;21034;-69
2022/03/27 05:31:36;;;;;;;2.43;1.50;;;;;;;2.54;100.00;99309.70;1800105;79;21085;-69
2022/03/27 05:34:04;;;;;;;1.93;1.43;;;;;;;2.57;100.00;99323.61;1823290;79;21526;-69
2022/03/27 05:36:31;;;;;;;4.83;1.80;;;;;;;2.61;100.00;99336.20;1822891;79;21034;-69
2022/03/27 05:38:58;;;;;;;4.17;1.53;;;;;;;2.64;100.00;99331.42;1823154;79;21077;-69
2022/03/27 05:41:25;;;;;;;4.40;1.40;;;;;;;2.75;100.00;99340.30;1822812;79;21006;-69
2022/03/27 05:43:53;;;;;;;6.00;1.67;;;;;;;2.83;100.00;99349.78;1823117;79;21049;-68
2022/03/27 05:46:21;;;;;;;3.10;1.07;;;;;;;2.94;100.00;99353.67;1823257;79;21478;-68
2022/03/27 05:48:49;;;;;;;1.93;1.30;;;;;;;3.01;100.00;99376.17;1823167;79;21022;-69
2022/03/27 05:51:17;;;;;;;4.70;1.97;;;;;;;3.08;100.00;99368.45;1822790;78;21058;-68
2022/03/27 05:53:45;;;;;;;5.90;1.50;;;;;;;3.15;100.00;99376.73;1822956;79;21069;-67
2022/03/27 05:56:13;;;;;;;2.80;1.47;;;;;;;3.17;100.00;99381.44;1827708;78;21041;-67
2022/03/27 05:58:41;;;;;;;1.90;1.30;;;;;;;3.19;100.00;99401.70;1828729;78;21030;-69
2022/03/27 06:01:09;;;;;;;6.73;1.33;;;;;;;3.22;100.00;99409.45;1828947;78;21037;-70
2022/03/27 06:03:37;;;;;;;3.03;1.30;;;;;;;3.27;100.00;99409.52;1828700;78;21490;-69
2022/03/27 06:06:07;;;;;;;5.10;1.80;;;;;;;3.25;100.00;99419.00;1828953;78;21062;-70
2022/03/27 06:08:34;;;;;;;5.07;1.90;;;;;;;3.22;100.00;99435.30;1797015;78;20982;-69
2022/03/27 06:11:02;;;;;;;6.03;1.60;;;;;;;3.18;100.00;99425.38;1828728;78;21476;-69
2022/03/27 06:13:29;;;;;;;1.70;1.30;;;;;;;3.22;100.00;99434.83;1801182;78;21056;-70
2022/03/27 06:15:57;;;;;;;2.53;1.33;;;;;;;3.30;100.00;99438.63;1794903;80;21028;-71
2022/03/27 06:18:25;;;;;;;2.57;1.27;;;;;;;3.30;100.00;99442.14;1795002;80;21517;-70
2022/03/27 06:20:53;;;;;;;5.07;1.90;;;;;;;3.23;100.00;99458.38;1795971;80;21039;-70
2022/03/27 06:23:20;;;;;;;5.67;1.60;;;;;;;3.20;100.00;99456.81;1794603;80;21028;-70
2022/03/27 06:25:48;;;;;;;3.77;1.50;;;;;;;3.18;100.00;99462.78;1794839;80;21079;-70
2022/03/27 06:28:15;;;;;;;4.10;1.63;;;;;;;3.18;100.00;99467.30;1794374;80;21020;-70
2022/03/27 06:30:43;;;;;;;5.37;1.80;;;;;;;3.22;100.00;99470.91;1794501;80;21040;-69
2022/03/27 06:33:13;;;;;;;3.60;1.40;;;;;;;3.27;100.00;99477.65;1794567;80;21536;-69
2022/03/27 06:35:41;;;;;;;6.03;1.83;;;;;;;3.22;100.00;99468.23;1794506;80;21051;-69
2022/03/27 06:38:08;;;;;;;6.00;1.77;;;;;;;3.31;100.00;99478.58;1794401;80;21115;-68
2022/03/27 06:40:36;;;;;;;5.50;1.80;;;;;;;3.47;100.00;99483.39;1794732;80;21036;-70
2022/03/27 06:43:04;;;;;;;1.93;1.20;;;;;;;3.54;100.00;99489.00;1794621;80;21063;-70
2022/03/27 06:45:32;;;;;;;5.80;1.50;;;;;;;3.40;100.00;99492.45;1794383;80;21039;-70
2022/03/27 06:48:01;;;;;;;4.67;2.40;;;;;;;3.23;100.00;99505.14;1794694;80;21031;-70
2022/03/27 06:50:29;;;;;;;2.93;1.40;;;;;;;3.06;100.00;99513.80;1794540;80;21113;-69
2022/03/27 06:52:57;;;;;;;3.27;1.93;;;;;;;2.92;100.00;99523.02;1798307;78;21059;-68
2022/03/27 06:55:24;;;;;;;3.03;1.47;;;;;;;2.82;100.00;99523.84;1837033;78;21487;-70
2022/03/27 06:57:51;;;;;;;1.80;1.33;;;;;;;2.76;100.00;99518.18;1837062;78;21045;-69
2022/03/27 07:03:06;;;;;;;2.50;1.50;;;;;;;2.77;100.00;99511.88;1837078;78;21030;-69
2022/03/27 07:05:39;;;;;;;2.30;1.27;;;;;;;2.83;100.00;99516.66;1837265;78;21009;-69
2022/03/27 07:08:12;;;;;;;2.40;1.20;;;;;;;2.88;100.00;99518.45;1837055;78;21037;-68
2022/03/27 07:10:42;;;;;;;3.20;1.60;;;;;;;2.98;100.00;99518.50;1837366;78;21486;-68
2022/03/27 07:13:10;;;;;;;4.10;1.70;;;;;;;3.11;100.00;99520.42;1837000;78;21033;-69
2022/03/27 07:15:38;;;;;;;6.33;2.03;;;;;;;3.30;100.00;99516.13;1837478;78;20970;-69
2022/03/27 07:18:06;;;;;;;1.70;1.23;;;;;;;3.36;100.00;99528.42;1837038;78;20994;-68
2022/03/27 07:20:35;;;;;;;1.83;1.30;;;;;;;3.29;100.00;99530.45;1837139;78;21005;-68
2022/03/27 07:23:06;;;;;;;4.80;1.40;;;;;;;3.19;100.00;99551.33;1837286;78;21017;-69
2022/03/27 07:25:35;;;;;;;2.60;1.27;;;;;;;3.05;100.00;99561.05;1837415;78;21021;-69
2022/03/27 07:28:05;;;;;;;2.57;1.10;;;;;;;2.79;100.00;99548.63;1837177;78;21533;-68
2022/03/27 07:30:33;;;;;;;5.90;1.20;;;;;;;2.30;100.00;99522.98;1837168;78;20982;-68
2022/03/27 07:33:02;;;;;;;3.57;1.20;;;;;;;1.90;100.00;99527.70;1837288;78;21084;-68
2022/03/27 07:37:59;;;;;;;2.50;1.47;;;;;;;1.59;100.00;99529.39;1706658;84;21106;-69
2022/03/27 07:40:26;;;;;;;1.53;1.30;;;;;;;1.56;100.00;99529.17;1706344;84;21050;-69
2022/03/27 07:42:54;;;;;;;2.87;1.50;;;;;;;1.68;100.00;99521.96;1706519;84;21603;-69
2022/03/27 07:45:23;;;;;;;2.00;1.30;;;;;;;1.80;100.00;99532.94;1706200;84;21133;-69
2022/03/27 07:47:53;;;;;;;1.83;1.40;;;;;;;1.88;100.00;99533.16;1706644;84;21062;-68
2022/03/27 07:50:21;;;;;;;1.67;1.20;;;;;;;1.94;100.00;99538.46;1706344;84;21079;-69
2022/03/27 07:52:49;;;;;;;2.73;1.67;;;;;;;1.93;100.00;99558.58;1706395;84;21535;-68
2022/03/27 07:55:20;;;;;;;4.87;1.80;;;;;;;2.03;100.00;99562.19;1703810;84;21062;-68
2022/03/27 07:57:47;;;;;;;8.00;1.90;;;;;;;2.23;100.00;99570.70;1703687;84;21043;-68
2022/03/27 08:00:16;;;;;;;1.27;1.10;;;;;;;2.39;100.00;99555.58;1703843;83;21071;-67
2022/03/27 08:02:45;;;;;;;2.07;1.30;;;;;;;2.53;100.00;99562.38;1704079;84;21066;-68
2022/03/27 08:05:13;;;;;;;2.60;1.90;;;;;;;2.72;100.00;99552.81;1703685;84;21074;-68
2022/03/27 08:07:41;;;;;;;1.77;1.30;;;;;;;2.92;100.00;99566.63;1704688;84;21095;-67
2022/03/27 08:10:11;;;;;;;1.67;1.13;;;;;;;2.92;100.00;99575.10;1705607;84;21059;-67
2022/03/27 08:12:40;;;;;;;1.47;1.37;;;;;;;2.88;100.00;99589.71;1688736;84;21060;-68
2022/03/27 08:15:08;;;;;;;3.47;1.33;;;;;;;2.90;100.00;99585.08;1671083;86;21154;-69
2022/03/27 08:17:36;;;;;;;3.00;1.47;;;;;;;2.92;100.00;99592.46;1671315;86;21079;-69
2022/03/27 08:20:05;;;;;;;1.73;1.30;;;;;;;2.87;100.00;99614.24;1671259;86;21033;-68
2022/03/27 08:22:34;;;;;;;3.33;1.50;;;;;;;2.78;100.00;99609.20;1670988;86;21076;-69
2022/03/27 08:25:01;;;;;;;1.73;1.20;;;;;;;2.65;100.00;99613.88;1671247;86;21043;-69
2022/03/27 08:27:32;;;;;;;2.40;1.27;;;;;;;2.42;100.00;99617.17;1670957;86;21092;-69
2022/03/27 08:29:59;;;;;;;2.70;1.20;;;;;;;2.20;100.00;99641.64;1671330;86;21189;-69
2022/03/27 08:32:26;;;;;;;2.03;1.37;;;;;;;2.05;100.00;99660.23;1671067;86;21146;-67
2022/03/27 08:34:53;;;;;;;1.30;1.20;;;;;;;1.93;100.00;99659.45;1711961;80;20984;-67
2022/03/27 08:37:21;;;;;;;2.13;1.13;;;;;;;1.89;100.00;99656.64;1788756;80;21501;-69
2022/03/27 08:39:48;;;;;;;3.97;1.40;;;;;;;1.85;100.00;99673.87;1788452;80;21177;-68
2022/03/27 08:42:17;;;;;;;2.67;1.30;;;;;;;1.83;100.00;99669.16;1788534;80;21485;-69
2022/03/27 08:44:45;;;;;;;2.90;1.30;;;;;;;1.83;100.00;99655.33;1788691;80;21039;-68
2022/03/27 08:47:17;;;;;;;2.47;1.17;;;;;;;1.79;100.00;99652.56;1788352;80;21040;-68
2022/03/27 08:49:58;;;;;;;1.77;1.50;;;;;;;1.68;100.00;99641.44;1720284;82;21537;-68
2022/03/27 08:53:02;;;;;;;4.70;1.30;;;;;;;1.71;100.00;99636.33;1690914;85;21138;-69
2022/03/27 08:55:39;;;;;;;2.03;1.57;;;;;;;1.88;100.00;99632.30;1664151;86;21079;-68
2022/03/27 08:58:09;;;;;;;5.30;2.50;;;;;;;2.15;100.00;99636.34;1631143;86;21018;-69
2022/03/27 09:00:38;;;;;;;9.07;3.37;;;;;;;2.43;100.00;99649.06;1648005;87;21152;-69
2022/03/27 09:03:06;;;;;;;4.20;1.80;;;;;;;2.73;100.00;99651.47;1648338;87;21611;-68
2022/03/27 09:05:37;;;;;;;2.00;1.10;;;;;;;3.05;100.00;99641.19;1648157;87;21124;-68
2022/03/27 09:08:09;;;;;;;2.77;1.43;;;;;;;3.42;100.00;99659.36;1648210;87;21608;-70
2022/03/27 09:10:37;;;;;;;0.93;0.85;;;;;;;3.66;100.00;99677.72;1648358;87;21123;-68
2022/03/27 09:13:11;;;;;;;4.03;1.43;;;;;;;3.83;100.00;99685.59;1648216;87;21091;-68
2022/03/27 09:15:40;;;;;;;6.10;1.30;;;;;;;3.70;100.00;99703.70;1648264;87;21099;-68
2022/03/27 09:18:09;;;;;;;7.47;2.47;;;;;;;3.44;100.00;99706.84;1648317;87;21161;-68
2022/03/27 09:20:41;;;;;;;2.83;1.37;;;;;;;3.29;100.00;99707.66;1648470;87;21043;-68
2022/03/27 09:23:25;;;;;;;4.35;1.25;;;;;;;3.35;100.00;99717.00;1616991;89;21074;-67
2022/03/27 09:25:59;;;;;;;4.00;1.40;;;;;;;3.58;100.00;99725.70;1624029;88;21086;-68
2022/03/27 09:28:34;;;;;;;4.20;1.30;;;;;;;3.84;100.00;99729.23;1623789;88;21091;-68
2022/03/27 09:31:18;;;;;;;3.73;1.80;;;;;;;3.90;100.00;99736.23;1623929;88;21075;-68
2022/03/27 09:33:55;;;;;;;5.30;1.23;;;;;;;3.86;97.61;99729.94;1624910;87;21079;-67
2022/03/27 09:36:35;;;;;;;4.73;1.30;;;;;;;3.79;95.22;99739.02;1598367;90;21080;-68
2022/03/27 09:41:53;;;;;;;4.63;1.33;;;;;;;4.22;97.56;99724.98;1573491;91;21080;-68
2022/03/27 09:44:36;;;;;;;3.53;1.17;;;;;;;4.63;89.84;99729.25;1546936;93;21135;-68
2022/03/27 09:47:06;;;;;;;2.72;1.50;;;;;;;4.83;84.23;99727.91;1548996;93;21029;-67
2022/03/27 09:49:41;;;;;;;11.93;1.70;;;;;;;4.84;79.24;99741.16;1588374;90;21119;-68
2022/03/27 09:52:16;;;;;;;3.10;1.10;;;;;;;4.85;79.55;99752.72;1599860;88;21145;-66
2022/03/27 09:55:05;;;;;;;3.87;1.83;;;;;;;4.67;73.04;99761.95;1530838;91;21103;-67
2022/03/27 09:57:39;;;;;;;3.90;1.43;;;;;;;4.40;72.94;99781.38;1514600;94;21174;-68
2022/03/27 10:00:21;;;;;;;2.20;1.33;;;;;;;4.12;69.70;99771.78;1462620;98;21194;-67
2022/03/27 10:02:51;;;;;;;4.93;1.37;;;;;;;3.96;71.40;99780.31;1504377;95;21346;-68
2022/03/27 10:05:19;;;;;;;4.03;1.70;;;;;;;3.90;75.39;99769.67;1505272;95;21189;-68
2022/03/27 10:07:52;;;;;;;3.07;1.57;;;;;;;3.87;75.93;99767.25;1504701;95;21126;-68
2022/03/27 10:10:23;;;;;;;3.93;1.30;;;;;;;3.98;79.36;99771.66;1504777;95;21588;-68
2022/03/27 10:12:52;;;;;;;6.33;1.77;;;;;;;4.26;80.05;99767.88;1468833;96;21656;-68
2022/03/27 10:15:25;;;;;;;9.47;2.57;;;;;;;4.63;81.68;99769.92;1468946;97;21619;-68
2022/03/27 10:18:00;;;;;;;13.23;2.20;;;;;;;4.75;77.16;99782.20;1447566;99;21137;-67
2022/03/27 10:20:30;;;;;;;6.77;1.60;;;;;;;4.59;70.57;99778.73;1447661;99;21137;-69
2022/03/27 10:23:07;;;;;;;4.20;1.10;;;;;;;4.27;67.43;99793.67;1446190;96;21145;-67
2022/03/27 10:25:48;;;;;;;14.87;2.40;;;;;;;4.20;67.86;99782.66;1446604;99;21121;-67
2022/03/27 10:28:17;;;;;;;5.07;1.60;;;;;;;4.16;67.08;99784.77;1445915;99;21666;-68
2022/03/27 10:30:44;;;;;;;12.17;1.87;;;;;;;4.13;70.45;99774.33;1445850;99;21247;-69
2022/03/27 10:33:11;;;;;;;9.13;1.73;;;;;;;4.33;71.19;99791.27;1446025;99;21105;-69
2022/03/27 10:36:08;;;;;;;3.40;1.63;;;;;;;4.39;69.09;99792.55;1445955;99;22421;-69
2022/03/27 10:39:25;;;;;;;9.50;1.83;;;;;;;4.50;71.92;99786.26;1436373;98;21170;-68
2022/03/27 10:42:13;;;;;;;8.40;1.73;;;;;;;4.63;68.04;99792.18;1436271;99;21617;-68
2022/03/27 10:44:52;;;;;;;5.53;1.50;;;;;;;4.73;65.83;99815.81;1445846;98;21135;-68
2022/03/27 10:47:23;;;;;;;3.17;1.40;;;;;;;4.66;63.32;99807.14;1461245;98;21133;-68
2022/03/27 10:50:09;;;;;;;3.83;1.27;;;;;;;4.62;63.93;99807.05;1461567;98;21134;-68
2022/03/27 10:52:54;;;;;;;3.50;1.00;;;;;;;4.60;61.52;99825.09;1478094;97;21215;-68
2022/03/27 10:55:22;;;;;;;7.63;1.53;;;;;;;4.43;59.30;99820.77;1459116;98;21132;-69
2022/03/27 10:57:49;;;;;;;5.53;1.43;;;;;;;4.14;60.39;99847.41;1468969;96;21154;-68
2022/03/27 11:00:37;;;;;;;4.93;1.40;;;;;;;4.01;63.10;99839.63;1488228;96;21087;-67
2022/03/27 11:03:04;;;;;;;5.33;1.30;;;;;;;3.98;66.24;99833.19;1487838;94;21112;-69
2022/03/27 11:05:39;;;;;;;5.97;1.87;;;;;;;3.99;65.23;99829.55;1518236;94;21144;-69
2022/03/27 11:08:21;;;;;;;11.77;2.30;;;;;;;4.03;65.68;99834.98;1518211;94;21153;-68
2022/03/27 11:10:58;;;;;;;6.17;1.77;;;;;;;4.13;67.17;99814.46;1518781;94;21601;-67
2022/03/27 11:13:32;;;;;;;7.20;1.70;;;;;;;4.05;66.21;99840.20;1508083;94;21144;-68
2022/03/27 11:16:14;;;;;;;7.57;2.47;;;;;;;3.96;68.82;99848.53;1519267;94;21100;-69
2022/03/27 11:18:46;;;;;;;2.57;1.13;;;;;;;3.89;71.75;99844.20;1519320;94;21116;-69
2022/03/27 11:21:30;;;;;;;1.97;1.50;;;;;;;3.77;70.12;99847.93;1546318;91;21063;-67
2022/03/27 11:24:10;;;;;;;5.70;1.50;;;;;;;3.65;75.12;99856.53;1570782;91;21643;-69
2022/03/27 11:26:37;;;;;;;5.30;1.37;;;;;;;3.71;80.13;99864.52;1571093;91;21091;-69
2022/03/27 11:29:25;;;;;;;4.53;1.50;;;;;;;3.72;81.63;99867.53;1571004;91;21139;-68
2022/03/27 11:32:09;;;;;;;7.87;1.80;;;;;;;3.64;84.21;99877.56;1542233;93;21566;-68
2022/03/27 11:34:38;;;;;;;6.47;1.77;;;;;;;3.43;84.14;99876.21;1588565;87;21081;-68
2022/03/27 11:37:23;;;;;;;9.90;1.50;;;;;;;3.39;83.75;99867.60;1650388;87;21132;-68
2022/03/27 11:39:47;;;;;;;8.40;1.90;;;;;;;3.66;84.95;99860.89;1654209;86;21038;-68
2022/03/27 11:42:24;;;;;;;9.07;1.90;;;;;;;3.97;85.29;99879.17;1659196;86;21112;-67
2022/03/27 11:45:11;;;;;;;5.63;1.97;;;;;;;4.04;85.17;99879.50;1659141;86;21578;-68
2022/03/27 11:47:41;;;;;;;1.77;1.67;;;;;;;4.02;87.70;99883.27;1656113;87;21096;-69
2022/03/27 11:50:24;;;;;;;3.67;1.47;;;;;;;3.85;93.43;99884.23;1654376;87;21140;-67
2022/03/27 11:52:52;;;;;;;10.43;1.90;;;;;;;3.74;99.88;99885.16;1625242;88;21106;-69
2022/03/27 11:55:19;;;;;;;8.47;1.87;;;;;;;3.57;100.00;99899.11;1624784;88;21605;-69
2022/03/27 11:57:55;;;;;;;9.37;2.20;;;;;;;3.39;100.00;99897.50;1616427;88;21563;-68
2022/03/27 12:00:37;;;;;;;5.80;1.83;;;;;;;3.18;100.00;99904.98;1615468;89;21076;-67